sensor_id;sensor_type;location;lat;lon;timestamp;P1;durP1;ratioP1;P2;durP2;ratioP2
19828;SDS011;10075;50.924;4.396;2023-02-02T00:02:10;17.27;;;3.87;;
19828;SDS011;10075;50.924;4.396;2023-02-02T00:04:39;16.80;;;3.60;;
19828;SDS011;10075;50.924;4.396;2023-02-02T00:07:06;16.63;;;3.60;;
19828;SDS011;10075;50.924;4.396;2023-02-02T00:09:33;11.93;;;2.33;;
19828;SDS011;10075;50.924;4.396;2023-02-02T00:12:00;12.17;;;3.80;;
19828;SDS011;10075;50.924;4.396;2023-02-02T00:14:27;15.20;;;3.53;;
19828;SDS011;10075;50.924;4.396;2023-02-02T00:16:55;16.10;;;3.27;;
19828;SDS011;10075;50.924;4.396;2023-02-02T00:19:23;14.33;;;4.17;;
19828;SDS011;10075;50.924;4.396;2023-02-02T00:21:53;24.53;;;3.77;;
19828;SDS011;10075;50.924;4.396;2023-02-02T00:24:20;19.70;;;4.83;;
19828;SDS011;10075;50.924;4.396;2023-02-02T00:26:48;26.17;;;5.27;;
19828;SDS011;10075;50.924;4.396;2023-02-02T00:29:17;15.00;;;3.60;;
19828;SDS011;10075;50.924;4.396;2023-02-02T00:31:45;21.03;;;4.40;;
19828;SDS011;10075;50.924;4.396;2023-02-02T00:34:13;16.57;;;4.40;;
19828;SDS011;10075;50.924;4.396;2023-02-02T00:36:41;16.00;;;3.50;;
19828;SDS011;10075;50.924;4.396;2023-02-02T00:39:10;22.13;;;4.70;;
19828;SDS011;10075;50.924;4.396;2023-02-02T00:41:40;25.17;;;4.77;;
19828;SDS011;10075;50.924;4.396;2023-02-02T00:44:07;20.97;;;4.20;;
19828;SDS011;10075;50.924;4.396;2023-02-02T00:46:52;19.87;;;3.73;;
19828;SDS011;10075;50.924;4.396;2023-02-02T00:49:19;19.43;;;4.57;;
19828;SDS011;10075;50.924;4.396;2023-02-02T00:51:46;17.87;;;3.27;;
19828;SDS011;10075;50.924;4.396;2023-02-02T00:54:14;22.03;;;3.53;;
19828;SDS011;10075;50.924;4.396;2023-02-02T00:56:41;18.00;;;4.17;;
19828;SDS011;10075;50.924;4.396;2023-02-02T00:59:09;17.20;;;3.77;;
19828;SDS011;10075;50.924;4.396;2023-02-02T01:01:36;17.23;;;3.90;;
19828;SDS011;10075;50.924;4.396;2023-02-02T01:04:03;18.90;;;3.63;;
19828;SDS011;10075;50.924;4.396;2023-02-02T01:06:30;12.90;;;4.13;;
19828;SDS011;10075;50.924;4.396;2023-02-02T01:08:57;22.60;;;4.00;;
19828;SDS011;10075;50.924;4.396;2023-02-02T01:11:26;24.33;;;4.17;;
19828;SDS011;10075;50.924;4.396;2023-02-02T01:13:54;17.83;;;4.23;;
19828;SDS011;10075;50.924;4.396;2023-02-02T01:16:21;21.60;;;4.00;;
19828;SDS011;10075;50.924;4.396;2023-02-02T01:18:49;16.03;;;3.87;;
19828;SDS011;10075;50.924;4.396;2023-02-02T01:21:16;24.77;;;4.50;;
19828;SDS011;10075;50.924;4.396;2023-02-02T01:23:43;14.83;;;3.67;;
19828;SDS011;10075;50.924;4.396;2023-02-02T01:26:10;23.37;;;3.67;;
19828;SDS011;10075;50.924;4.396;2023-02-02T01:28:40;18.63;;;3.67;;
19828;SDS011;10075;50.924;4.396;2023-02-02T01:31:09;19.87;;;4.40;;
19828;SDS011;10075;50.924;4.396;2023-02-02T01:33:37;20.43;;;4.20;;
19828;SDS011;10075;50.924;4.396;2023-02-02T01:36:05;23.50;;;3.90;;
19828;SDS011;10075;50.924;4.396;2023-02-02T01:38:33;27.80;;;5.40;;
19828;SDS011;10075;50.924;4.396;2023-02-02T01:41:01;18.87;;;3.23;;
19828;SDS011;10075;50.924;4.396;2023-02-02T01:43:29;18.50;;;4.33;;
19828;SDS011;10075;50.924;4.396;2023-02-02T01:46:18;15.93;;;3.77;;
19828;SDS011;10075;50.924;4.396;2023-02-02T01:48:47;13.67;;;2.93;;
19828;SDS011;10075;50.924;4.396;2023-02-02T01:51:18;15.00;;;3.27;;
19828;SDS011;10075;50.924;4.396;2023-02-02T01:53:48;14.10;;;3.43;;
19828;SDS011;10075;50.924;4.396;2023-02-02T01:56:18;18.53;;;3.67;;
19828;SDS011;10075;50.924;4.396;2023-02-02T01:58:50;17.70;;;3.73;;
19828;SDS011;10075;50.924;4.396;2023-02-02T02:01:19;13.83;;;3.23;;
19828;SDS011;10075;50.924;4.396;2023-02-02T02:03:46;18.63;;;4.43;;
19828;SDS011;10075;50.924;4.396;2023-02-02T02:06:14;16.60;;;3.43;;
19828;SDS011;10075;50.924;4.396;2023-02-02T02:08:44;17.33;;;3.60;;
19828;SDS011;10075;50.924;4.396;2023-02-02T02:11:16;17.43;;;3.77;;
19828;SDS011;10075;50.924;4.396;2023-02-02T02:13:43;15.87;;;4.13;;
19828;SDS011;10075;50.924;4.396;2023-02-02T02:16:32;20.37;;;4.17;;
19828;SDS011;10075;50.924;4.396;2023-02-02T02:19:12;19.60;;;3.47;;
19828;SDS011;10075;50.924;4.396;2023-02-02T02:21:53;17.50;;;3.73;;
19828;SDS011;10075;50.924;4.396;2023-02-02T02:25:00;17.07;;;3.50;;
19828;SDS011;10075;50.924;4.396;2023-02-02T02:28:05;21.07;;;4.10;;
19828;SDS011;10075;50.924;4.396;2023-02-02T02:33:56;9.80;;;3.00;;
19828;SDS011;10075;50.924;4.396;2023-02-02T02:36:31;20.00;;;4.13;;
19828;SDS011;10075;50.924;4.396;2023-02-02T02:39:05;18.27;;;4.37;;
19828;SDS011;10075;50.924;4.396;2023-02-02T02:41:38;17.77;;;4.43;;
19828;SDS011;10075;50.924;4.396;2023-02-02T02:44:10;12.80;;;3.53;;
19828;SDS011;10075;50.924;4.396;2023-02-02T02:46:39;16.53;;;3.60;;
19828;SDS011;10075;50.924;4.396;2023-02-02T02:49:09;12.83;;;3.50;;
19828;SDS011;10075;50.924;4.396;2023-02-02T02:51:39;17.17;;;3.60;;
19828;SDS011;10075;50.924;4.396;2023-02-02T02:54:08;16.07;;;3.93;;
19828;SDS011;10075;50.924;4.396;2023-02-02T02:56:39;17.07;;;4.23;;
19828;SDS011;10075;50.924;4.396;2023-02-02T02:59:15;22.00;;;4.33;;
19828;SDS011;10075;50.924;4.396;2023-02-02T03:01:50;21.00;;;3.90;;
19828;SDS011;10075;50.924;4.396;2023-02-02T03:04:30;20.27;;;4.07;;
19828;SDS011;10075;50.924;4.396;2023-02-02T03:07:06;18.60;;;3.10;;
19828;SDS011;10075;50.924;4.396;2023-02-02T03:09:40;16.37;;;3.77;;
19828;SDS011;10075;50.924;4.396;2023-02-02T03:12:09;14.17;;;3.47;;
19828;SDS011;10075;50.924;4.396;2023-02-02T03:14:37;18.40;;;3.63;;
19828;SDS011;10075;50.924;4.396;2023-02-02T03:17:04;22.80;;;3.70;;
19828;SDS011;10075;50.924;4.396;2023-02-02T03:19:33;15.33;;;3.83;;
19828;SDS011;10075;50.924;4.396;2023-02-02T03:22:00;19.70;;;3.90;;
19828;SDS011;10075;50.924;4.396;2023-02-02T03:24:27;18.40;;;4.17;;
19828;SDS011;10075;50.924;4.396;2023-02-02T03:26:54;20.83;;;3.87;;
19828;SDS011;10075;50.924;4.396;2023-02-02T03:29:21;21.07;;;4.23;;
19828;SDS011;10075;50.924;4.396;2023-02-02T03:31:48;23.43;;;4.30;;
19828;SDS011;10075;50.924;4.396;2023-02-02T03:34:16;20.67;;;3.40;;
19828;SDS011;10075;50.924;4.396;2023-02-02T03:36:44;19.37;;;4.47;;
19828;SDS011;10075;50.924;4.396;2023-02-02T03:39:11;16.13;;;4.00;;
19828;SDS011;10075;50.924;4.396;2023-02-02T03:41:38;13.60;;;3.10;;
19828;SDS011;10075;50.924;4.396;2023-02-02T03:44:05;15.80;;;3.63;;
19828;SDS011;10075;50.924;4.396;2023-02-02T03:46:32;16.20;;;3.20;;
19828;SDS011;10075;50.924;4.396;2023-02-02T03:48:59;20.93;;;3.17;;
19828;SDS011;10075;50.924;4.396;2023-02-02T03:51:26;21.10;;;3.93;;
19828;SDS011;10075;50.924;4.396;2023-02-02T03:53:55;19.63;;;3.67;;
19828;SDS011;10075;50.924;4.396;2023-02-02T03:56:22;20.50;;;4.00;;
19828;SDS011;10075;50.924;4.396;2023-02-02T03:58:52;11.93;;;2.97;;
19828;SDS011;10075;50.924;4.396;2023-02-02T04:01:24;15.90;;;3.37;;
19828;SDS011;10075;50.924;4.396;2023-02-02T04:03:52;22.97;;;3.73;;
19828;SDS011;10075;50.924;4.396;2023-02-02T04:06:22;17.73;;;3.60;;
19828;SDS011;10075;50.924;4.396;2023-02-02T04:08:49;16.90;;;3.27;;
19828;SDS011;10075;50.924;4.396;2023-02-02T04:11:18;12.20;;;2.90;;
19828;SDS011;10075;50.924;4.396;2023-02-02T04:13:45;18.73;;;3.23;;
19828;SDS011;10075;50.924;4.396;2023-02-02T04:16:12;13.90;;;3.67;;
19828;SDS011;10075;50.924;4.396;2023-02-02T04:18:39;21.43;;;3.87;;
19828;SDS011;10075;50.924;4.396;2023-02-02T04:21:06;8.90;;;2.90;;
19828;SDS011;10075;50.924;4.396;2023-02-02T04:23:35;14.90;;;3.23;;
19828;SDS011;10075;50.924;4.396;2023-02-02T04:26:02;12.47;;;3.93;;
19828;SDS011;10075;50.924;4.396;2023-02-02T04:28:32;15.57;;;3.33;;
19828;SDS011;10075;50.924;4.396;2023-02-02T04:30:59;21.33;;;4.03;;
19828;SDS011;10075;50.924;4.396;2023-02-02T04:33:26;10.93;;;2.97;;
19828;SDS011;10075;50.924;4.396;2023-02-02T04:35:54;17.27;;;3.27;;
19828;SDS011;10075;50.924;4.396;2023-02-02T04:38:21;12.87;;;2.77;;
19828;SDS011;10075;50.924;4.396;2023-02-02T04:40:50;10.80;;;2.20;;
19828;SDS011;10075;50.924;4.396;2023-02-02T04:43:17;14.50;;;2.93;;
19828;SDS011;10075;50.924;4.396;2023-02-02T04:45:45;18.00;;;3.33;;
19828;SDS011;10075;50.924;4.396;2023-02-02T04:48:12;12.43;;;2.90;;
19828;SDS011;10075;50.924;4.396;2023-02-02T04:50:39;11.43;;;3.00;;
19828;SDS011;10075;50.924;4.396;2023-02-02T04:53:06;20.20;;;3.70;;
19828;SDS011;10075;50.924;4.396;2023-02-02T04:55:36;11.33;;;2.87;;
19828;SDS011;10075;50.924;4.396;2023-02-02T04:58:03;15.40;;;2.97;;
19828;SDS011;10075;50.924;4.396;2023-02-02T05:00:30;14.13;;;2.47;;
19828;SDS011;10075;50.924;4.396;2023-02-02T05:02:59;10.43;;;2.80;;
19828;SDS011;10075;50.924;4.396;2023-02-02T05:05:26;12.73;;;3.23;;
19828;SDS011;10075;50.924;4.396;2023-02-02T05:07:53;13.20;;;2.57;;
19828;SDS011;10075;50.924;4.396;2023-02-02T05:10:20;16.20;;;2.87;;
19828;SDS011;10075;50.924;4.396;2023-02-02T05:12:47;11.93;;;2.33;;
19828;SDS011;10075;50.924;4.396;2023-02-02T05:15:17;8.13;;;2.27;;
19828;SDS011;10075;50.924;4.396;2023-02-02T05:17:45;10.17;;;2.90;;
19828;SDS011;10075;50.924;4.396;2023-02-02T05:20:13;15.60;;;3.10;;
19828;SDS011;10075;50.924;4.396;2023-02-02T05:22:41;10.03;;;2.40;;
19828;SDS011;10075;50.924;4.396;2023-02-02T05:25:08;14.17;;;2.67;;
19828;SDS011;10075;50.924;4.396;2023-02-02T05:27:35;13.97;;;2.57;;
19828;SDS011;10075;50.924;4.396;2023-02-02T05:30:03;15.20;;;3.00;;
19828;SDS011;10075;50.924;4.396;2023-02-02T05:32:30;20.27;;;3.70;;
19828;SDS011;10075;50.924;4.396;2023-02-02T05:34:57;12.27;;;2.33;;
19828;SDS011;10075;50.924;4.396;2023-02-02T05:37:26;18.10;;;3.40;;
19828;SDS011;10075;50.924;4.396;2023-02-02T05:39:53;13.23;;;3.57;;
19828;SDS011;10075;50.924;4.396;2023-02-02T05:42:20;12.67;;;2.83;;
19828;SDS011;10075;50.924;4.396;2023-02-02T05:44:47;13.33;;;3.40;;
19828;SDS011;10075;50.924;4.396;2023-02-02T05:47:14;16.33;;;3.63;;
19828;SDS011;10075;50.924;4.396;2023-02-02T05:49:40;16.37;;;3.50;;
19828;SDS011;10075;50.924;4.396;2023-02-02T05:52:08;14.87;;;3.40;;
19828;SDS011;10075;50.924;4.396;2023-02-02T05:54:41;19.20;;;3.90;;
19828;SDS011;10075;50.924;4.396;2023-02-02T05:57:08;11.90;;;2.90;;
19828;SDS011;10075;50.924;4.396;2023-02-02T05:59:35;12.37;;;2.40;;
19828;SDS011;10075;50.924;4.396;2023-02-02T06:02:02;18.70;;;3.47;;
19828;SDS011;10075;50.924;4.396;2023-02-02T06:04:29;11.17;;;2.53;;
19828;SDS011;10075;50.924;4.396;2023-02-02T06:06:56;18.03;;;4.03;;
19828;SDS011;10075;50.924;4.396;2023-02-02T06:09:23;15.57;;;2.77;;
19828;SDS011;10075;50.924;4.396;2023-02-02T06:11:51;14.73;;;3.50;;
19828;SDS011;10075;50.924;4.396;2023-02-02T06:14:18;14.33;;;3.20;;
19828;SDS011;10075;50.924;4.396;2023-02-02T06:16:45;19.53;;;3.73;;
19828;SDS011;10075;50.924;4.396;2023-02-02T06:19:12;13.17;;;3.10;;
19828;SDS011;10075;50.924;4.396;2023-02-02T06:21:39;13.97;;;3.03;;
19828;SDS011;10075;50.924;4.396;2023-02-02T06:24:06;12.13;;;3.20;;
19828;SDS011;10075;50.924;4.396;2023-02-02T06:26:34;15.83;;;3.23;;
19828;SDS011;10075;50.924;4.396;2023-02-02T06:29:02;15.60;;;3.47;;
19828;SDS011;10075;50.924;4.396;2023-02-02T06:31:29;19.53;;;3.20;;
19828;SDS011;10075;50.924;4.396;2023-02-02T06:33:58;16.33;;;3.37;;
19828;SDS011;10075;50.924;4.396;2023-02-02T06:36:26;14.00;;;3.07;;
19828;SDS011;10075;50.924;4.396;2023-02-02T06:38:54;13.07;;;3.37;;
19828;SDS011;10075;50.924;4.396;2023-02-02T06:41:22;16.27;;;3.93;;
19828;SDS011;10075;50.924;4.396;2023-02-02T06:43:50;13.00;;;3.17;;
19828;SDS011;10075;50.924;4.396;2023-02-02T06:46:18;13.40;;;3.07;;
19828;SDS011;10075;50.924;4.396;2023-02-02T06:48:45;16.37;;;3.37;;
19828;SDS011;10075;50.924;4.396;2023-02-02T06:51:12;11.87;;;2.83;;
19828;SDS011;10075;50.924;4.396;2023-02-02T06:53:39;12.13;;;3.03;;
19828;SDS011;10075;50.924;4.396;2023-02-02T06:56:08;14.97;;;3.20;;
19828;SDS011;10075;50.924;4.396;2023-02-02T06:58:38;18.07;;;3.23;;
19828;SDS011;10075;50.924;4.396;2023-02-02T07:01:06;15.60;;;3.23;;
19828;SDS011;10075;50.924;4.396;2023-02-02T07:03:35;12.93;;;2.83;;
19828;SDS011;10075;50.924;4.396;2023-02-02T07:06:09;14.30;;;3.00;;
19828;SDS011;10075;50.924;4.396;2023-02-02T07:08:40;18.67;;;3.67;;
19828;SDS011;10075;50.924;4.396;2023-02-02T07:11:07;14.97;;;3.10;;
19828;SDS011;10075;50.924;4.396;2023-02-02T07:13:35;17.40;;;4.33;;
19828;SDS011;10075;50.924;4.396;2023-02-02T07:16:02;14.90;;;3.60;;
19828;SDS011;10075;50.924;4.396;2023-02-02T07:18:29;21.33;;;3.83;;
19828;SDS011;10075;50.924;4.396;2023-02-02T07:20:58;12.30;;;3.20;;
19828;SDS011;10075;50.924;4.396;2023-02-02T07:23:26;14.23;;;3.77;;
19828;SDS011;10075;50.924;4.396;2023-02-02T07:26:03;13.17;;;3.40;;
19828;SDS011;10075;50.924;4.396;2023-02-02T07:28:32;18.63;;;3.17;;
19828;SDS011;10075;50.924;4.396;2023-02-02T07:30:59;12.67;;;2.83;;
19828;SDS011;10075;50.924;4.396;2023-02-02T07:33:27;14.63;;;2.40;;
19828;SDS011;10075;50.924;4.396;2023-02-02T07:35:54;15.37;;;2.50;;
19828;SDS011;10075;50.924;4.396;2023-02-02T07:38:22;14.17;;;3.60;;
19828;SDS011;10075;50.924;4.396;2023-02-02T07:40:49;14.20;;;2.97;;
19828;SDS011;10075;50.924;4.396;2023-02-02T07:43:16;14.47;;;3.37;;
19828;SDS011;10075;50.924;4.396;2023-02-02T07:45:44;12.43;;;2.93;;
19828;SDS011;10075;50.924;4.396;2023-02-02T07:48:11;14.07;;;3.57;;
19828;SDS011;10075;50.924;4.396;2023-02-02T07:50:38;16.43;;;3.20;;
19828;SDS011;10075;50.924;4.396;2023-02-02T07:53:05;13.70;;;3.70;;
19828;SDS011;10075;50.924;4.396;2023-02-02T07:55:34;11.73;;;2.77;;
19828;SDS011;10075;50.924;4.396;2023-02-02T07:58:01;19.57;;;4.30;;
19828;SDS011;10075;50.924;4.396;2023-02-02T08:00:28;15.43;;;2.87;;
19828;SDS011;10075;50.924;4.396;2023-02-02T08:02:55;9.90;;;2.73;;
19828;SDS011;10075;50.924;4.396;2023-02-02T08:05:22;15.47;;;2.60;;
19828;SDS011;10075;50.924;4.396;2023-02-02T08:07:49;10.67;;;2.83;;
19828;SDS011;10075;50.924;4.396;2023-02-02T08:10:16;16.47;;;3.33;;
19828;SDS011;10075;50.924;4.396;2023-02-02T08:12:44;12.73;;;3.17;;
19828;SDS011;10075;50.924;4.396;2023-02-02T08:15:11;13.30;;;2.97;;
19828;SDS011;10075;50.924;4.396;2023-02-02T08:17:38;11.00;;;2.87;;
19828;SDS011;10075;50.924;4.396;2023-02-02T08:20:10;13.83;;;2.67;;
19828;SDS011;10075;50.924;4.396;2023-02-02T08:22:38;11.20;;;2.63;;
19828;SDS011;10075;50.924;4.396;2023-02-02T08:25:05;13.23;;;2.10;;
19828;SDS011;10075;50.924;4.396;2023-02-02T08:27:33;12.70;;;2.80;;
19828;SDS011;10075;50.924;4.396;2023-02-02T08:30:01;10.57;;;2.10;;
19828;SDS011;10075;50.924;4.396;2023-02-02T08:32:29;10.60;;;3.13;;
19828;SDS011;10075;50.924;4.396;2023-02-02T08:34:56;12.97;;;3.23;;
19828;SDS011;10075;50.924;4.396;2023-02-02T08:37:23;12.50;;;2.93;;
19828;SDS011;10075;50.924;4.396;2023-02-02T08:39:50;11.87;;;2.77;;
19828;SDS011;10075;50.924;4.396;2023-02-02T08:42:17;13.43;;;2.63;;
19828;SDS011;10075;50.924;4.396;2023-02-02T08:44:44;13.60;;;2.73;;
19828;SDS011;10075;50.924;4.396;2023-02-02T08:47:13;7.87;;;1.80;;
19828;SDS011;10075;50.924;4.396;2023-02-02T08:49:40;6.40;;;2.17;;
19828;SDS011;10075;50.924;4.396;2023-02-02T08:52:09;10.07;;;2.17;;
19828;SDS011;10075;50.924;4.396;2023-02-02T08:54:36;13.97;;;2.63;;
19828;SDS011;10075;50.924;4.396;2023-02-02T08:57:03;12.00;;;2.50;;
19828;SDS011;10075;50.924;4.396;2023-02-02T08:59:30;10.90;;;2.83;;
19828;SDS011;10075;50.924;4.396;2023-02-02T09:01:57;15.23;;;3.17;;
19828;SDS011;10075;50.924;4.396;2023-02-02T09:04:25;11.53;;;2.67;;
19828;SDS011;10075;50.924;4.396;2023-02-02T09:06:52;13.50;;;2.60;;
19828;SDS011;10075;50.924;4.396;2023-02-02T09:09:19;9.17;;;2.23;;
19828;SDS011;10075;50.924;4.396;2023-02-02T09:11:46;7.60;;;2.20;;
19828;SDS011;10075;50.924;4.396;2023-02-02T09:14:13;12.93;;;2.33;;
19828;SDS011;10075;50.924;4.396;2023-02-02T09:16:40;8.83;;;2.30;;
19828;SDS011;10075;50.924;4.396;2023-02-02T09:19:08;10.43;;;2.80;;
19828;SDS011;10075;50.924;4.396;2023-02-02T09:21:37;9.67;;;2.50;;
19828;SDS011;10075;50.924;4.396;2023-02-02T09:24:05;14.50;;;2.70;;
19828;SDS011;10075;50.924;4.396;2023-02-02T09:26:33;14.87;;;2.80;;
19828;SDS011;10075;50.924;4.396;2023-02-02T09:29:01;11.77;;;3.10;;
19828;SDS011;10075;50.924;4.396;2023-02-02T09:31:31;10.67;;;2.33;;
19828;SDS011;10075;50.924;4.396;2023-02-02T09:33:59;17.60;;;3.03;;
19828;SDS011;10075;50.924;4.396;2023-02-02T09:36:27;13.30;;;2.70;;
19828;SDS011;10075;50.924;4.396;2023-02-02T09:38:56;12.17;;;2.83;;
19828;SDS011;10075;50.924;4.396;2023-02-02T09:47:26;10.57;;;1.90;;
19828;SDS011;10075;50.924;4.396;2023-02-02T09:50:03;9.10;;;2.53;;
19828;SDS011;10075;50.924;4.396;2023-02-02T09:52:38;15.47;;;2.40;;
19828;SDS011;10075;50.924;4.396;2023-02-02T09:55:12;13.90;;;2.67;;
19828;SDS011;10075;50.924;4.396;2023-02-02T09:57:44;11.70;;;2.03;;
19828;SDS011;10075;50.924;4.396;2023-02-02T10:00:18;11.43;;;2.73;;
19828;SDS011;10075;50.924;4.396;2023-02-02T10:02:54;7.47;;;1.83;;
19828;SDS011;10075;50.924;4.396;2023-02-02T10:05:25;13.70;;;2.80;;
19828;SDS011;10075;50.924;4.396;2023-02-02T10:07:57;8.03;;;2.47;;
19828;SDS011;10075;50.924;4.396;2023-02-02T10:10:31;5.27;;;2.10;;
19828;SDS011;10075;50.924;4.396;2023-02-02T10:13:02;13.73;;;2.60;;
19828;SDS011;10075;50.924;4.396;2023-02-02T10:15:36;6.87;;;1.93;;
19828;SDS011;10075;50.924;4.396;2023-02-02T10:18:09;10.80;;;2.00;;
19828;SDS011;10075;50.924;4.396;2023-02-02T10:20:41;8.00;;;2.00;;
19828;SDS011;10075;50.924;4.396;2023-02-02T10:23:12;10.53;;;2.50;;
19828;SDS011;10075;50.924;4.396;2023-02-02T10:25:50;14.57;;;2.53;;
19828;SDS011;10075;50.924;4.396;2023-02-02T10:28:26;9.70;;;2.63;;
19828;SDS011;10075;50.924;4.396;2023-02-02T10:31:09;12.13;;;2.43;;
19828;SDS011;10075;50.924;4.396;2023-02-02T10:33:45;9.90;;;2.30;;
19828;SDS011;10075;50.924;4.396;2023-02-02T10:36:21;6.87;;;2.13;;
19828;SDS011;10075;50.924;4.396;2023-02-02T10:38:58;13.50;;;2.40;;
19828;SDS011;10075;50.924;4.396;2023-02-02T10:41:38;12.30;;;2.47;;
19828;SDS011;10075;50.924;4.396;2023-02-02T10:44:16;15.47;;;2.87;;
19828;SDS011;10075;50.924;4.396;2023-02-02T10:46:52;10.20;;;2.30;;
19828;SDS011;10075;50.924;4.396;2023-02-02T10:49:25;15.17;;;2.47;;
19828;SDS011;10075;50.924;4.396;2023-02-02T10:51:56;13.53;;;2.13;;
19828;SDS011;10075;50.924;4.396;2023-02-02T10:54:39;9.33;;;2.73;;
19828;SDS011;10075;50.924;4.396;2023-02-02T10:57:18;12.63;;;2.80;;
19828;SDS011;10075;50.924;4.396;2023-02-02T10:59:51;12.33;;;2.23;;
19828;SDS011;10075;50.924;4.396;2023-02-02T11:02:24;13.43;;;2.70;;
19828;SDS011;10075;50.924;4.396;2023-02-02T11:04:52;11.30;;;2.57;;
19828;SDS011;10075;50.924;4.396;2023-02-02T11:07:37;10.47;;;2.27;;
19828;SDS011;10075;50.924;4.396;2023-02-02T11:10:04;6.87;;;1.87;;
19828;SDS011;10075;50.924;4.396;2023-02-02T11:12:34;12.33;;;2.23;;
19828;SDS011;10075;50.924;4.396;2023-02-02T11:15:07;11.13;;;2.17;;
19828;SDS011;10075;50.924;4.396;2023-02-02T11:17:47;6.23;;;1.27;;
19828;SDS011;10075;50.924;4.396;2023-02-02T11:20:20;10.53;;;2.50;;
19828;SDS011;10075;50.924;4.396;2023-02-02T11:22:58;6.77;;;2.17;;
19828;SDS011;10075;50.924;4.396;2023-02-02T11:25:26;9.67;;;2.20;;
19828;SDS011;10075;50.924;4.396;2023-02-02T11:27:59;6.73;;;2.53;;
19828;SDS011;10075;50.924;4.396;2023-02-02T11:30:35;13.47;;;2.30;;
19828;SDS011;10075;50.924;4.396;2023-02-02T11:33:18;12.00;;;2.50;;
19828;SDS011;10075;50.924;4.396;2023-02-02T11:35:53;7.50;;;2.10;;
19828;SDS011;10075;50.924;4.396;2023-02-02T11:38:21;12.40;;;2.50;;
19828;SDS011;10075;50.924;4.396;2023-02-02T11:40:52;11.67;;;2.57;;
19828;SDS011;10075;50.924;4.396;2023-02-02T11:43:24;11.90;;;2.37;;
19828;SDS011;10075;50.924;4.396;2023-02-02T11:45:55;10.20;;;2.13;;
19828;SDS011;10075;50.924;4.396;2023-02-02T11:48:26;7.23;;;2.20;;
19828;SDS011;10075;50.924;4.396;2023-02-02T11:50:56;9.53;;;2.63;;
19828;SDS011;10075;50.924;4.396;2023-02-02T11:53:25;8.50;;;2.93;;
19828;SDS011;10075;50.924;4.396;2023-02-02T11:55:55;10.70;;;2.60;;
19828;SDS011;10075;50.924;4.396;2023-02-02T11:58:29;9.30;;;2.77;;
19828;SDS011;10075;50.924;4.396;2023-02-02T12:01:09;10.43;;;2.87;;
19828;SDS011;10075;50.924;4.396;2023-02-02T12:03:48;7.53;;;2.20;;
19828;SDS011;10075;50.924;4.396;2023-02-02T12:06:16;10.07;;;1.90;;
19828;SDS011;10075;50.924;4.396;2023-02-02T12:08:45;8.10;;;2.10;;
19828;SDS011;10075;50.924;4.396;2023-02-02T12:11:15;11.77;;;2.50;;
19828;SDS011;10075;50.924;4.396;2023-02-02T12:13:58;8.60;;;2.17;;
19828;SDS011;10075;50.924;4.396;2023-02-02T12:16:42;8.50;;;2.33;;
19828;SDS011;10075;50.924;4.396;2023-02-02T12:19:26;9.13;;;2.27;;
19828;SDS011;10075;50.924;4.396;2023-02-02T12:22:06;4.50;;;1.87;;
19828;SDS011;10075;50.924;4.396;2023-02-02T12:24:46;9.07;;;2.40;;
19828;SDS011;10075;50.924;4.396;2023-02-02T12:27:22;8.13;;;2.20;;
19828;SDS011;10075;50.924;4.396;2023-02-02T12:30:02;7.87;;;1.70;;
19828;SDS011;10075;50.924;4.396;2023-02-02T12:35:47;3.37;;;1.77;;
19828;SDS011;10075;50.924;4.396;2023-02-02T12:38:27;7.03;;;1.97;;
19828;SDS011;10075;50.924;4.396;2023-02-02T12:41:12;11.67;;;2.43;;
19828;SDS011;10075;50.924;4.396;2023-02-02T12:43:49;9.13;;;2.20;;
19828;SDS011;10075;50.924;4.396;2023-02-02T12:46:32;7.25;;;1.80;;
19828;SDS011;10075;50.924;4.396;2023-02-02T12:49:32;8.77;;;2.17;;
19828;SDS011;10075;50.924;4.396;2023-02-02T12:52:15;6.80;;;2.30;;
19828;SDS011;10075;50.924;4.396;2023-02-02T12:54:58;7.18;;;2.00;;
19828;SDS011;10075;50.924;4.396;2023-02-02T12:57:40;8.37;;;2.17;;
19828;SDS011;10075;50.924;4.396;2023-02-02T13:00:18;6.83;;;2.10;;
19828;SDS011;10075;50.924;4.396;2023-02-02T13:03:05;9.60;;;2.30;;
19828;SDS011;10075;50.924;4.396;2023-02-02T13:05:50;10.73;;;2.30;;
19828;SDS011;10075;50.924;4.396;2023-02-02T13:08:27;11.13;;;2.80;;
19828;SDS011;10075;50.924;4.396;2023-02-02T13:11:01;7.13;;;2.37;;
19828;SDS011;10075;50.924;4.396;2023-02-02T13:13:52;5.77;;;1.87;;
19828;SDS011;10075;50.924;4.396;2023-02-02T13:16:20;5.77;;;1.80;;
19828;SDS011;10075;50.924;4.396;2023-02-02T13:18:50;5.33;;;1.97;;
19828;SDS011;10075;50.924;4.396;2023-02-02T13:21:22;7.37;;;1.97;;
19828;SDS011;10075;50.924;4.396;2023-02-02T13:23:50;9.80;;;2.47;;
19828;SDS011;10075;50.924;4.396;2023-02-02T13:26:22;9.40;;;2.10;;
19828;SDS011;10075;50.924;4.396;2023-02-02T13:28:52;8.87;;;2.50;;
19828;SDS011;10075;50.924;4.396;2023-02-02T13:31:27;7.20;;;2.10;;
19828;SDS011;10075;50.924;4.396;2023-02-02T13:34:04;7.57;;;2.23;;
19828;SDS011;10075;50.924;4.396;2023-02-02T13:36:49;8.50;;;2.47;;
19828;SDS011;10075;50.924;4.396;2023-02-02T13:39:26;7.50;;;2.03;;
19828;SDS011;10075;50.924;4.396;2023-02-02T13:41:58;4.10;;;2.37;;
19828;SDS011;10075;50.924;4.396;2023-02-02T13:44:31;10.43;;;1.87;;
19828;SDS011;10075;50.924;4.396;2023-02-02T13:47:03;6.40;;;1.88;;
19828;SDS011;10075;50.924;4.396;2023-02-02T13:49:37;3.80;;;1.80;;
19828;SDS011;10075;50.924;4.396;2023-02-02T13:52:17;7.25;;;2.10;;
19828;SDS011;10075;50.924;4.396;2023-02-02T13:55:14;8.83;;;2.50;;
19828;SDS011;10075;50.924;4.396;2023-02-02T13:58:03;5.63;;;1.97;;
19828;SDS011;10075;50.924;4.396;2023-02-02T14:01:03;8.77;;;2.27;;
19828;SDS011;10075;50.924;4.396;2023-02-02T14:03:34;7.23;;;2.13;;
19828;SDS011;10075;50.924;4.396;2023-02-02T14:06:08;8.60;;;1.90;;
19828;SDS011;10075;50.924;4.396;2023-02-02T14:08:42;6.47;;;2.00;;
19828;SDS011;10075;50.924;4.396;2023-02-02T14:11:15;6.00;;;1.60;;
19828;SDS011;10075;50.924;4.396;2023-02-02T14:13:47;6.43;;;1.97;;
19828;SDS011;10075;50.924;4.396;2023-02-02T14:16:41;12.83;;;2.50;;
19828;SDS011;10075;50.924;4.396;2023-02-02T14:22:23;7.80;;;1.90;;
19828;SDS011;10075;50.924;4.396;2023-02-02T14:28:10;9.07;;;2.20;;
19828;SDS011;10075;50.924;4.396;2023-02-02T14:30:38;10.00;;;2.33;;
19828;SDS011;10075;50.924;4.396;2023-02-02T14:33:25;7.23;;;2.20;;
19828;SDS011;10075;50.924;4.396;2023-02-02T14:36:10;7.80;;;1.90;;
19828;SDS011;10075;50.924;4.396;2023-02-02T14:38:55;4.87;;;1.80;;
19828;SDS011;10075;50.924;4.396;2023-02-02T14:47:54;7.77;;;2.87;;
19828;SDS011;10075;50.924;4.396;2023-02-02T14:50:25;8.20;;;2.33;;
19828;SDS011;10075;50.924;4.396;2023-02-02T14:53:01;5.43;;;2.17;;
19828;SDS011;10075;50.924;4.396;2023-02-02T14:55:48;9.63;;;2.50;;
19828;SDS011;10075;50.924;4.396;2023-02-02T14:58:21;9.63;;;2.57;;
19828;SDS011;10075;50.924;4.396;2023-02-02T15:00:55;8.47;;;2.57;;
19828;SDS011;10075;50.924;4.396;2023-02-02T15:06:26;6.83;;;2.30;;
19828;SDS011;10075;50.924;4.396;2023-02-02T15:12:16;13.10;;;2.90;;
19828;SDS011;10075;50.924;4.396;2023-02-02T15:14:44;12.00;;;2.70;;
19828;SDS011;10075;50.924;4.396;2023-02-02T15:17:18;7.27;;;2.67;;
19828;SDS011;10075;50.924;4.396;2023-02-02T15:19:51;9.27;;;2.50;;
19828;SDS011;10075;50.924;4.396;2023-02-02T15:22:22;7.63;;;2.27;;
19828;SDS011;10075;50.924;4.396;2023-02-02T15:24:55;7.57;;;2.20;;
19828;SDS011;10075;50.924;4.396;2023-02-02T15:27:25;10.13;;;2.63;;
19828;SDS011;10075;50.924;4.396;2023-02-02T15:29:54;11.20;;;3.53;;
19828;SDS011;10075;50.924;4.396;2023-02-02T15:32:24;8.60;;;2.63;;
19828;SDS011;10075;50.924;4.396;2023-02-02T15:34:53;9.30;;;2.60;;